Time;durP1;ratioP1;P1;durP2;ratioP2;P2;SDS_P1;SDS_P2;PMS_P1;PMS_P2;Temp;Humidity;BMP_temperature;BMP_pressure;BME280_temperature;BME280_humidity;BME280_pressure;Samples;Min_cycle;Max_cycle;Signal;HPM_P1;HPM_P2
2023/01/26 00:00:34;;;;;;;107.05;44.03;;;;;;;-2.96;100.00;102396.28;5047874;28;20065;-63
2023/01/26 00:02:59;;;;;;;102.27;43.60;;;;;;;-3.00;100.00;102396.66;5047558;28;20020;-63
2023/01/26 00:05:27;;;;;;;102.77;43.27;;;;;;;-3.00;100.00;102398.31;5054276;28;20037;-63
2023/01/26 00:07:52;;;;;;;109.53;44.63;;;;;;;-3.00;100.00;102399.19;5054343;28;20111;-63
2023/01/26 00:10:18;;;;;;;101.90;42.13;;;;;;;-3.03;100.00;102389.63;5046294;28;20124;-63
2023/01/26 00:12:43;;;;;;;102.43;42.97;;;;;;;-3.02;100.00;102388.88;5047024;28;20472;-63
2023/01/26 00:15:08;;;;;;;108.83;43.63;;;;;;;-3.03;100.00;102384.53;5046504;28;20029;-63
2023/01/26 00:17:33;;;;;;;107.17;43.83;;;;;;;-3.00;100.00;102372.94;5047080;28;20469;-63
2023/01/26 00:19:59;;;;;;;102.83;41.93;;;;;;;-2.98;100.00;102372.38;5047057;28;20052;-63
2023/01/26 00:22:26;;;;;;;106.33;43.80;;;;;;;-2.98;100.00;102379.97;5051193;28;20079;-63
2023/01/26 00:24:52;;;;;;;106.67;45.20;;;;;;;-2.98;100.00;102369.81;5053720;28;20021;-63
2023/01/26 00:27:17;;;;;;;106.53;42.53;;;;;;;-2.98;100.00;102369.81;5046907;28;20033;-63
2023/01/26 00:29:42;;;;;;;104.70;42.53;;;;;;;-2.96;100.00;102365.81;5046433;28;20025;-63
2023/01/26 00:32:07;;;;;;;104.93;42.27;;;;;;;-2.97;100.00;102371.66;5047055;28;20025;-62
2023/01/26 00:34:33;;;;;;;102.80;42.23;;;;;;;-2.95;100.00;102369.28;5048298;28;20112;-63
2023/01/26 00:36:58;;;;;;;94.37;40.33;;;;;;;-2.93;100.00;102357.66;5049835;28;20096;-63
2023/01/26 00:39:24;;;;;;;107.70;42.57;;;;;;;-2.92;100.00;102359.47;5049798;28;20082;-63
2023/01/26 00:44:44;;;;;;;97.30;40.43;;;;;;;-2.93;100.00;102360.22;5049145;28;20087;-62
2023/01/26 00:47:11;;;;;;;107.07;42.00;;;;;;;-2.94;100.00;102356.75;5049876;28;20029;-63
2023/01/26 00:49:37;;;;;;;103.63;44.03;;;;;;;-2.93;100.00;102352.59;5049049;28;20029;-62
2023/01/26 00:52:03;;;;;;;95.67;41.07;;;;;;;-2.92;100.00;102347.69;5049772;28;20044;-62
2023/01/26 00:54:30;;;;;;;97.97;39.13;;;;;;;-2.91;100.00;102341.88;5049144;28;20033;-62
2023/01/26 00:56:55;;;;;;;94.03;41.50;;;;;;;-2.92;100.00;102339.16;5049839;28;20092;-63
2023/01/26 00:59:21;;;;;;;98.07;40.57;;;;;;;-2.94;100.00;102331.38;5051563;28;20033;-63
2023/01/26 01:01:47;;;;;;;96.83;40.50;;;;;;;-2.93;100.00;102332.28;5048381;28;20033;-63
2023/01/26 01:04:13;;;;;;;96.53;39.83;;;;;;;-2.91;100.00;102325.72;5049298;28;20056;-63
2023/01/26 01:06:38;;;;;;;95.73;41.53;;;;;;;-2.90;100.00;102325.91;5051319;28;20032;-63
2023/01/26 01:09:04;;;;;;;94.73;40.97;;;;;;;-2.90;100.00;102330.09;5058011;28;20039;-63
2023/01/26 01:11:29;;;;;;;89.50;40.13;;;;;;;-2.88;100.00;102325.19;5050781;28;20054;-63
2023/01/26 01:13:54;;;;;;;90.20;39.40;;;;;;;-2.88;100.00;102322.66;5049912;28;20119;-63
2023/01/26 01:16:20;;;;;;;99.57;42.10;;;;;;;-2.88;100.00;102327.72;5052573;28;20068;-63
2023/01/26 01:18:45;;;;;;;93.07;39.40;;;;;;;-2.90;100.00;102328.44;5049841;28;20033;-63
2023/01/26 01:21:16;;;;;;;98.13;39.70;;;;;;;-2.90;100.00;102322.47;5049309;28;20060;-64
2023/01/26 01:23:42;;;;;;;91.43;38.33;;;;;;;-2.87;100.00;102324.44;5049701;28;20477;-63
2023/01/26 01:26:08;;;;;;;100.43;41.07;;;;;;;-2.88;100.00;102325.19;5050091;28;20487;-63
2023/01/26 01:28:35;;;;;;;91.03;40.17;;;;;;;-2.89;100.00;102319.19;5048316;28;20029;-63
2023/01/26 01:31:08;;;;;;;89.50;39.17;;;;;;;-2.87;100.00;102321.91;5055180;28;20020;-63
2023/01/26 01:33:33;;;;;;;95.20;39.80;;;;;;;-2.87;100.00;102316.81;5056330;28;20427;-63
2023/01/26 01:36:02;;;;;;;85.13;37.33;;;;;;;-2.86;100.00;102324.59;5052045;28;20021;-64
2023/01/26 01:38:28;;;;;;;92.93;40.00;;;;;;;-2.87;100.00;102325.34;5050289;28;20040;-63
2023/01/26 01:40:55;;;;;;;97.70;40.00;;;;;;;-2.87;100.00;102319.34;5048615;28;20481;-63
2023/01/26 01:43:21;;;;;;;92.10;38.97;;;;;;;-2.85;100.00;102322.97;5062372;28;20485;-63
2023/01/26 01:45:47;;;;;;;95.33;39.63;;;;;;;-2.86;100.00;102313.56;5053021;28;20028;-63
2023/01/26 01:48:28;;;;;;;93.60;38.57;;;;;;;-2.87;100.00;102316.81;5047530;28;20021;-63
2023/01/26 01:50:57;;;;;;;92.90;38.55;;;;;;;-2.87;100.00;102319.34;5051191;28;20041;-63
2023/01/26 01:53:31;;;;;;;94.13;38.03;;;;;;;-2.86;100.00;102319.53;5049906;28;20035;-63
2023/01/26 01:56:04;;;;;;;95.67;40.60;;;;;;;-2.82;100.00;102315.69;5051638;28;20553;-63
2023/01/26 01:58:32;;;;;;;86.33;37.80;;;;;;;-2.80;100.00;102334.53;5054416;28;20024;-63
2023/01/26 02:00:58;;;;;;;97.37;42.10;;;;;;;-2.81;100.00;102327.66;5056568;28;20550;-63
2023/01/26 02:03:25;;;;;;;90.80;38.17;;;;;;;-2.80;100.00;102319.31;5048313;28;20112;-63
2023/01/26 02:06:00;;;;;;;86.37;38.10;;;;;;;-2.80;100.00;102319.31;5048617;28;20033;-64
2023/01/26 02:08:31;;;;;;;87.60;40.33;;;;;;;-2.79;100.00;102321.13;5049023;28;20035;-63
2023/01/26 02:11:01;;;;;;;87.70;36.70;;;;;;;-2.80;100.00;102319.31;5048305;28;20082;-63
2023/01/26 02:13:27;;;;;;;94.13;38.77;;;;;;;-2.80;100.00;102314.22;5049923;28;20021;-63
2023/01/26 02:15:53;;;;;;;93.20;39.27;;;;;;;-2.78;100.00;102313.69;5048575;28;20024;-63
2023/01/26 02:18:18;;;;;;;87.90;39.77;;;;;;;-2.78;100.00;102297.53;5049471;28;20086;-63
2023/01/26 02:20:49;;;;;;;89.07;37.97;;;;;;;-2.78;100.00;102292.47;5049742;28;20033;-63
2023/01/26 02:23:35;;;;;;;95.40;39.33;;;;;;;-2.76;100.00;102296.06;5048442;28;20028;-63
2023/01/26 02:26:03;;;;;;;86.53;37.30;;;;;;;-2.74;100.00;102294.63;5048320;28;20029;-64
2023/01/26 02:28:29;;;;;;;83.93;34.87;;;;;;;-2.74;100.00;102299.69;5049471;28;20534;-63
2023/01/26 02:30:55;;;;;;;94.77;38.47;;;;;;;-2.74;100.00;102293.69;5048049;28;20107;-63
2023/01/26 02:33:26;;;;;;;93.33;39.40;;;;;;;-2.74;100.00;102289.53;5060097;28;20020;-63
2023/01/26 02:35:52;;;;;;;91.00;37.23;;;;;;;-2.73;100.00;102295.50;5047942;28;20017;-63
2023/01/26 02:38:20;;;;;;;89.13;37.83;;;;;;;-2.73;100.00;102298.94;5051673;28;20031;-63
2023/01/26 02:40:57;;;;;;;84.33;37.67;;;;;;;-2.72;100.00;102295.69;5047510;28;20389;-64
2023/01/26 02:43:25;;;;;;;84.73;38.03;;;;;;;-2.73;100.00;102290.41;5061044;28;20031;-63
2023/01/26 02:45:51;;;;;;;82.87;36.17;;;;;;;-2.74;100.00;102292.06;5047667;28;20477;-63
2023/01/26 02:51:11;;;;;;;93.17;38.80;;;;;;;-2.73;100.00;102287.88;5039102;28;20145;-63
2023/01/26 02:53:36;;;;;;;88.40;37.23;;;;;;;-2.72;100.00;102289.69;5048046;28;20053;-63
2023/01/26 02:56:02;;;;;;;92.17;37.03;;;;;;;-2.72;100.00;102283.00;5050751;28;20040;-64
2023/01/26 02:58:27;;;;;;;85.73;36.20;;;;;;;-2.70;100.00;102285.69;5048013;28;20299;-63
2023/01/26 03:00:52;;;;;;;89.43;36.60;;;;;;;-2.70;100.00;102280.63;5048087;28;20039;-63
2023/01/26 03:03:23;;;;;;;85.07;36.70;;;;;;;-2.70;100.00;102288.22;5048372;28;20035;-63
2023/01/26 03:05:48;;;;;;;85.50;35.97;;;;;;;-2.69;100.00;102283.31;5059453;28;20503;-63
2023/01/26 03:08:13;;;;;;;83.00;34.47;;;;;;;-2.67;100.00;102284.41;5047363;28;20057;-63
2023/01/26 03:10:39;;;;;;;88.43;37.10;;;;;;;-2.64;100.00;102285.47;5059406;28;20020;-63
2023/01/26 03:13:04;;;;;;;88.10;36.17;;;;;;;-2.66;100.00;102278.56;5047310;28;20025;-63
2023/01/26 03:15:42;;;;;;;77.70;33.33;;;;;;;-2.63;100.00;102280.56;5054375;28;20240;-64
2023/01/26 03:29:11;;;;;;;75.60;33.53;;;;;;;-2.62;100.00;102277.28;5047170;28;20106;-63
2023/01/26 03:31:36;;;;;;;76.50;34.53;;;;;;;-2.61;100.00;102275.63;5053559;28;20033;-63
2023/01/26 03:34:01;;;;;;;78.37;34.63;;;;;;;-2.60;100.00;102277.44;5046730;28;20033;-64
2023/01/26 03:36:27;;;;;;;83.90;34.43;;;;;;;-2.61;100.00;102273.09;5046886;28;20337;-63
2023/01/26 03:38:52;;;;;;;71.20;33.20;;;;;;;-2.61;100.00;102273.09;5046782;28;20037;-63
2023/01/26 03:57:41;;;;;;;77.40;33.37;;;;;;;-2.48;100.00;102268.59;5046245;28;20101;-63
2023/01/26 04:00:07;;;;;;;68.47;31.60;;;;;;;-2.46;100.00;102264.59;5046527;28;20125;-63
2023/01/26 04:08:23;;;;;;;69.30;30.60;;;;;;;-2.45;100.00;102253.72;5046570;28;20028;-63
2023/01/26 04:10:50;;;;;;;69.93;29.87;;;;;;;-2.45;100.00;102260.44;5049653;28;20029;-63
2023/01/26 04:21:29;;;;;;;69.53;31.70;;;;;;;-2.42;100.00;102264.19;5050183;28;20032;-63
2023/01/26 04:23:56;;;;;;;70.40;31.17;;;;;;;-2.38;100.00;102272.13;5050361;28;20111;-64
2023/01/26 04:26:26;;;;;;;65.63;30.07;;;;;;;-2.37;100.00;102266.31;5050005;28;20120;-63
2023/01/26 04:28:52;;;;;;;66.88;31.00;;;;;;;-2.35;100.00;102267.38;5050280;28;20178;-63
2023/01/26 04:31:17;;;;;;;66.40;31.17;;;;;;;-2.32;100.00;102260.13;5050302;28;20099;-63
2023/01/26 04:33:44;;;;;;;60.43;27.57;;;;;;;-2.30;100.00;102268.78;5050246;28;20033;-64
2023/01/26 04:36:09;;;;;;;61.37;26.13;;;;;;;-2.28;100.00;102258.81;5050341;28;20126;-64
2023/01/26 04:38:35;;;;;;;56.87;27.30;;;;;;;-2.28;100.00;102259.69;5049986;28;20238;-63
2023/01/26 04:41:00;;;;;;;63.70;27.67;;;;;;;-2.26;100.00;102260.75;5053342;28;20020;-63
2023/01/26 04:43:26;;;;;;;64.80;26.77;;;;;;;-2.25;100.00;102260.03;5052814;28;20025;-64
2023/01/26 04:46:17;;;;;;;59.63;25.90;;;;;;;-2.25;100.00;102257.50;5049966;28;20488;-64
2023/01/26 04:48:43;;;;;;;57.23;26.40;;;;;;;-2.22;100.00;102259.44;5048774;28;20029;-64
2023/01/26 04:51:13;;;;;;;61.03;27.23;;;;;;;-2.21;100.00;102258.69;5049728;28;20405;-63
2023/01/26 04:53:39;;;;;;;56.42;25.10;;;;;;;-2.20;100.00;102258.88;5050371;28;20040;-63
2023/01/26 04:56:04;;;;;;;55.67;24.87;;;;;;;-2.19;100.00;102253.06;5049573;28;20029;-63
2023/01/26 04:58:31;;;;;;;58.93;26.37;;;;;;;-2.15;100.00;102261.00;5049663;28;20025;-64
2023/01/26 05:00:57;;;;;;;54.17;24.00;;;;;;;-2.14;100.00;102252.66;5049317;28;20032;-63
2023/01/26 05:03:24;;;;;;;52.37;25.10;;;;;;;-2.13;100.00;102254.44;5051451;28;20037;-64
2023/01/26 05:05:51;;;;;;;47.67;23.07;;;;;;;-2.11;100.00;102261.50;5061001;28;20063;-63
2023/01/26 05:08:18;;;;;;;48.40;24.60;;;;;;;-2.09;100.00;102260.03;5049812;28;20074;-63
2023/01/26 05:10:44;;;;;;;56.90;22.97;;;;;;;-2.09;100.00;102251.50;5050247;28;20313;-63
2023/01/26 05:13:10;;;;;;;47.33;22.30;;;;;;;-2.06;100.00;102254.34;5049988;28;20342;-64
2023/01/26 05:15:35;;;;;;;49.40;22.57;;;;;;;-2.05;100.00;102253.59;5049685;28;20033;-64
2023/01/26 05:18:01;;;;;;;54.33;23.57;;;;;;;-2.03;100.00;102257.22;5049820;28;20033;-64
2023/01/26 05:20:26;;;;;;;51.27;22.97;;;;;;;-2.02;100.00;102250.50;5049041;28;20489;-64
2023/01/26 05:22:52;;;;;;;45.97;22.17;;;;;;;-2.03;100.00;102252.13;5049451;28;20032;-64
2023/01/26 05:25:18;;;;;;;42.80;20.20;;;;;;;-2.02;100.00;102251.41;5048979;28;20082;-64
2023/01/26 05:27:43;;;;;;;46.43;22.03;;;;;;;-2.00;100.00;102254.13;5049343;28;20477;-64
2023/01/26 05:30:09;;;;;;;45.57;21.87;;;;;;;-1.98;100.00;102257.72;5048672;28;20562;-64
2023/01/26 05:32:35;;;;;;;44.27;20.77;;;;;;;-1.98;100.00;102266.22;5056255;28;20036;-64
2023/01/26 05:35:00;;;;;;;44.27;20.53;;;;;;;-1.98;100.00;102263.69;5048847;28;20025;-64
2023/01/26 05:37:27;;;;;;;47.87;21.37;;;;;;;-1.97;100.00;102268.03;5048642;28;20082;-64
2023/01/26 05:39:52;;;;;;;45.60;20.47;;;;;;;-1.95;100.00;102264.03;5049076;28;20108;-64
2023/01/26 05:42:18;;;;;;;41.43;19.47;;;;;;;-1.95;100.00;102263.13;5048993;28;20545;-64
2023/01/26 05:44:43;;;;;;;47.90;20.50;;;;;;;-1.94;100.00;102257.28;5049053;28;20103;-63
2023/01/26 05:47:09;;;;;;;45.07;21.47;;;;;;;-1.91;100.00;102262.72;5049238;28;20050;-64
2023/01/26 05:49:37;;;;;;;46.97;21.93;;;;;;;-1.93;100.00;102264.19;5048725;28;20025;-63
2023/01/26 05:52:10;;;;;;;47.07;21.27;;;;;;;-1.90;100.00;102261.06;5048369;28;20081;-63
2023/01/26 05:54:36;;;;;;;46.33;20.53;;;;;;;-1.90;100.00;102264.50;5048698;28;20032;-64
2023/01/26 05:57:01;;;;;;;47.03;21.63;;;;;;;-1.89;100.00;102262.88;5048882;28;20009;-64
2023/01/26 05:59:27;;;;;;;44.10;20.83;;;;;;;-1.89;100.00;102263.75;5048385;28;20070;-64
2023/01/26 06:01:52;;;;;;;42.97;19.67;;;;;;;-1.88;100.00;102264.66;5048907;28;20028;-63
2023/01/26 06:04:18;;;;;;;46.47;20.67;;;;;;;-1.88;100.00;102260.50;5049589;28;20116;-64
2023/01/26 06:06:43;;;;;;;44.77;21.37;;;;;;;-1.87;100.00;102262.28;5048634;28;20036;-64
2023/01/26 06:09:09;;;;;;;45.23;21.33;;;;;;;-1.86;100.00;102268.28;5048673;28;20017;-64
2023/01/26 06:11:34;;;;;;;49.63;21.97;;;;;;;-1.86;100.00;102268.28;5048691;28;20457;-64
2023/01/26 06:14:00;;;;;;;43.37;19.40;;;;;;;-1.84;100.00;102269.34;5047775;28;20098;-64
2023/01/26 06:16:25;;;;;;;43.83;19.67;;;;;;;-1.83;100.00;102276.22;5048584;28;20060;-64
2023/01/26 06:18:50;;;;;;;47.83;20.07;;;;;;;-1.82;100.00;102280.56;5048308;28;20025;-64
2023/01/26 06:21:15;;;;;;;41.60;19.77;;;;;;;-1.81;100.00;102284.91;5048722;28;20090;-64
2023/01/26 06:23:41;;;;;;;43.87;20.77;;;;;;;-1.81;100.00;102280.72;5053087;28;20124;-63
2023/01/26 06:26:07;;;;;;;46.83;20.83;;;;;;;-1.79;100.00;102283.44;5049819;28;20535;-64
2023/01/26 06:28:32;;;;;;;43.07;20.30;;;;;;;-1.78;100.00;102276.72;5051463;28;20056;-64
2023/01/26 06:31:02;;;;;;;44.07;19.90;;;;;;;-1.78;100.00;102275.06;5054516;28;20096;-64
2023/01/26 06:33:28;;;;;;;41.63;19.53;;;;;;;-1.80;100.00;102263.84;5047223;28;20120;-64
2023/01/26 06:35:54;;;;;;;44.67;20.87;;;;;;;-1.79;100.00;102272.34;5047955;28;20598;-64
2023/01/26 06:38:20;;;;;;;42.83;19.23;;;;;;;-1.79;100.00;102280.88;5049372;28;20020;-64
2023/01/26 06:40:46;;;;;;;38.13;19.33;;;;;;;-1.78;100.00;102281.81;5056949;28;20616;-64
2023/01/26 06:43:11;;;;;;;48.43;21.33;;;;;;;-1.77;100.00;102276.88;5051985;28;20033;-63
2023/01/26 06:45:36;;;;;;;35.93;18.07;;;;;;;-1.76;100.00;102282.88;5047728;28;20040;-64
2023/01/26 06:48:02;;;;;;;43.67;18.93;;;;;;;-1.74;100.00;102286.44;5047456;28;20017;-64
2023/01/26 06:50:32;;;;;;;45.10;19.90;;;;;;;-1.74;100.00;102294.06;5047463;28;20056;-64
2023/01/26 06:53:01;;;;;;;40.53;19.23;;;;;;;-1.74;100.00;102289.00;5047419;28;20064;-63
2023/01/26 06:55:38;;;;;;;43.13;19.17;;;;;;;-1.74;100.00;102287.34;5047695;28;20029;-64
2023/01/26 06:58:03;;;;;;;42.80;17.87;;;;;;;-1.74;100.00;102287.34;5047811;28;20374;-64
2023/01/26 07:00:28;;;;;;;38.93;18.07;;;;;;;-1.73;100.00;102289.19;5052037;28;20085;-63
2023/01/26 07:02:54;;;;;;;40.83;18.33;;;;;;;-1.72;100.00;102298.59;5049086;28;20025;-64
2023/01/26 07:05:19;;;;;;;36.67;18.50;;;;;;;-1.72;100.00;102285.88;5047601;28;20110;-64
2023/01/26 07:07:44;;;;;;;41.43;18.90;;;;;;;-1.71;100.00;102287.66;5052240;28;20460;-64
2023/01/26 07:10:10;;;;;;;41.63;19.17;;;;;;;-1.70;100.00;102286.94;5051674;28;20033;-64
2023/01/26 07:12:43;;;;;;;40.37;18.57;;;;;;;-1.69;100.00;102287.81;5053481;28;20421;-64
2023/01/26 07:15:10;;;;;;;37.00;17.17;;;;;;;-1.69;100.00;102282.75;5053636;28;20092;-64
2023/01/26 07:17:37;;;;;;;37.17;16.67;;;;;;;-1.67;100.00;102290.56;5049985;28;20127;-64
2023/01/26 07:20:03;;;;;;;38.57;18.30;;;;;;;-1.66;100.00;102289.81;5051154;28;20044;-64
2023/01/26 07:22:28;;;;;;;41.77;17.60;;;;;;;-1.66;100.00;102295.81;5048856;28;20029;-64
2023/01/26 07:24:53;;;;;;;44.43;18.63;;;;;;;-1.64;100.00;102301.03;5052226;28;20421;-63
2023/01/26 07:27:18;;;;;;;39.37;17.97;;;;;;;-1.63;100.00;102297.75;5044420;28;20025;-64
2023/01/26 07:29:45;;;;;;;41.60;18.97;;;;;;;-1.63;100.00;102308.84;5045153;28;20028;-64
2023/01/26 07:32:11;;;;;;;41.27;18.50;;;;;;;-1.63;100.00;102295.22;5051482;28;20123;-64
2023/01/26 07:34:36;;;;;;;38.20;17.80;;;;;;;-1.63;100.00;102305.38;5051735;28;20028;-64
2023/01/26 07:37:02;;;;;;;36.67;17.07;;;;;;;-1.62;100.00;102304.66;5045696;28;20025;-64
2023/01/26 07:39:27;;;;;;;37.77;17.77;;;;;;;-1.61;100.00;102301.34;5044474;28;20029;-63
2023/01/26 07:41:53;;;;;;;42.70;18.50;;;;;;;-1.59;100.00;102299.88;5044904;28;20064;-63
2023/01/26 07:44:18;;;;;;;43.60;19.30;;;;;;;-1.59;100.00;102299.88;5048562;28;20039;-64
2023/01/26 07:46:43;;;;;;;43.83;18.33;;;;;;;-1.58;100.00;102305.13;5051782;28;20036;-64
2023/01/26 07:49:10;;;;;;;43.73;19.00;;;;;;;-1.57;100.00;102308.59;5047327;28;20694;-64
2023/01/26 07:51:36;;;;;;;41.53;18.37;;;;;;;-1.56;100.00;102310.38;5053383;28;20564;-64
2023/01/26 07:54:02;;;;;;;45.13;18.30;;;;;;;-1.55;100.00;102312.19;5046602;28;20399;-64
2023/01/26 07:56:27;;;;;;;42.53;18.83;;;;;;;-1.54;100.00;102319.06;5050901;28;20017;-64
2023/01/26 07:58:53;;;;;;;37.87;16.57;;;;;;;-1.54;100.00;102318.16;5053153;28;20033;-64
2023/01/26 08:01:19;;;;;;;43.90;17.20;;;;;;;-1.54;100.00;102313.97;5051501;28;20559;-64
2023/01/26 08:03:44;;;;;;;45.37;19.30;;;;;;;-1.53;100.00;102315.78;5048968;28;20040;-64
2023/01/26 08:06:11;;;;;;;40.80;18.77;;;;;;;-1.53;100.00;102320.84;5045907;28;20036;-64
2023/01/26 08:08:38;;;;;;;41.07;19.20;;;;;;;-1.51;100.00;102324.47;5047123;28;20051;-64
2023/01/26 08:11:04;;;;;;;40.00;18.13;;;;;;;-1.51;100.00;102324.47;5053049;28;20047;-64
2023/01/26 08:13:30;;;;;;;44.23;19.17;;;;;;;-1.49;100.00;102333.16;5049582;28;20465;-64
2023/01/26 08:16:00;;;;;;;46.20;17.80;;;;;;;-1.48;100.00;102332.44;5059109;28;20024;-64
2023/01/26 08:18:26;;;;;;;41.25;19.40;;;;;;;-1.47;100.00;102328.22;5046789;28;20039;-64
2023/01/26 08:20:52;;;;;;;39.10;17.00;;;;;;;-1.45;100.00;102325.13;5044191;28;20024;-64
2023/01/26 08:23:18;;;;;;;45.07;18.40;;;;;;;-1.45;100.00;102330.22;5053505;28;20366;-64
2023/01/26 08:25:44;;;;;;;46.43;18.23;;;;;;;-1.42;100.00;102328.72;5044494;28;20025;-64
2023/01/26 08:28:09;;;;;;;40.83;18.47;;;;;;;-1.41;100.00;102340.69;5044779;28;20032;-64
2023/01/26 08:30:35;;;;;;;42.13;17.57;;;;;;;-1.40;100.00;102332.34;5046380;28;20033;-64
2023/01/26 08:33:01;;;;;;;45.83;18.77;;;;;;;-1.39;100.00;102339.22;5056005;28;20373;-64
2023/01/26 08:35:27;;;;;;;45.67;19.63;;;;;;;-1.39;100.00;102334.13;5045266;28;20044;-64
2023/01/26 08:37:52;;;;;;;40.53;18.17;;;;;;;-1.38;100.00;102339.38;5045652;28;20021;-64
2023/01/26 08:40:18;;;;;;;44.87;18.70;;;;;;;-1.37;100.00;102342.84;5045706;28;20559;-64
2023/01/26 08:42:43;;;;;;;41.00;18.83;;;;;;;-1.36;100.00;102337.00;5043815;28;20454;-63
2023/01/26 08:45:09;;;;;;;43.17;18.30;;;;;;;-1.35;100.00;102337.16;5042779;28;20150;-64
2023/01/26 08:47:34;;;;;;;44.97;19.27;;;;;;;-1.35;100.00;102337.16;5046079;28;20707;-64
2023/01/26 08:49:59;;;;;;;42.47;18.83;;;;;;;-1.35;100.00;102344.78;5044024;28;20176;-64
2023/01/26 08:52:25;;;;;;;43.83;19.23;;;;;;;-1.32;100.00;102346.75;5043837;28;20586;-64
2023/01/26 08:54:50;;;;;;;43.63;18.73;;;;;;;-1.32;100.00;102341.66;5045313;28;20629;-63
2023/01/26 08:57:15;;;;;;;39.23;17.77;;;;;;;-1.30;100.00;102352.91;5049718;28;20033;-64
2023/01/26 08:59:40;;;;;;;43.03;18.60;;;;;;;-1.29;100.00;102336.91;5049154;28;20036;-64
2023/01/26 09:02:08;;;;;;;41.67;18.77;;;;;;;-1.26;100.00;102343.97;5049430;28;20023;-63
2023/01/26 09:04:33;;;;;;;44.87;19.10;;;;;;;-1.25;100.00;102351.75;5049587;28;20056;-64
2023/01/26 09:06:58;;;;;;;42.90;18.37;;;;;;;-1.23;100.00;102344.28;5049454;28;20017;-64
2023/01/26 09:09:24;;;;;;;42.07;19.00;;;;;;;-1.21;100.00;102350.44;5049492;28;20033;-64
2023/01/26 09:11:49;;;;;;;44.47;18.73;;;;;;;-1.19;100.00;102342.94;5049265;28;20036;-64
2023/01/26 09:14:14;;;;;;;41.73;18.10;;;;;;;-1.17;100.00;102346.56;5049032;28;20162;-63
2023/01/26 09:16:40;;;;;;;48.30;18.93;;;;;;;-1.14;100.00;102346.88;5050300;28;20103;-64
2023/01/26 09:19:05;;;;;;;44.40;18.97;;;;;;;-1.13;100.00;102353.75;5049548;28;20546;-64
2023/01/26 09:21:30;;;;;;;48.47;19.27;;;;;;;-1.13;100.00;102343.56;5049143;28;20056;-63
2023/01/26 09:23:56;;;;;;;49.60;19.97;;;;;;;-1.11;100.00;102348.09;5049812;28;20059;-64
2023/01/26 09:26:21;;;;;;;48.73;20.07;;;;;;;-1.09;100.00;102351.69;5049434;28;20029;-64
2023/01/26 09:28:51;;;;;;;45.97;19.50;;;;;;;-1.06;100.00;102345.13;5049701;28;20033;-64
2023/01/26 09:31:16;;;;;;;51.83;19.37;;;;;;;-1.05;100.00;102347.84;5049015;28;20020;-64
2023/01/26 09:33:41;;;;;;;48.43;20.90;;;;;;;-1.04;100.00;102346.19;5049512;28;20040;-63
2023/01/26 09:36:09;;;;;;;51.17;20.33;;;;;;;-1.03;100.00;102346.34;5049241;28;20040;-64
2023/01/26 09:38:35;;;;;;;55.03;22.87;;;;;;;-1.02;100.00;102358.31;5049861;28;20025;-64
2023/01/26 09:41:09;;;;;;;51.27;20.90;;;;;;;-1.00;100.00;102351.75;5048470;28;20044;-64
2023/01/26 09:43:53;;;;;;;52.50;21.40;;;;;;;-0.98;100.00;102359.53;5051696;28;20029;-63
2023/01/26 09:46:31;;;;;;;57.40;20.87;;;;;;;-0.99;100.00;102356.09;5048740;28;20223;-63
2023/01/26 09:49:12;;;;;;;58.27;22.00;;;;;;;-0.95;100.00;102353.88;5049117;28;20295;-64
2023/01/26 09:51:41;;;;;;;51.50;20.02;;;;;;;-0.95;100.00;102354.75;5048347;28;20045;-63
2023/01/26 09:54:25;;;;;;;57.87;22.10;;;;;;;-0.91;100.00;102358.53;5056068;28;20481;-63
2023/01/26 09:56:53;;;;;;;51.10;21.40;;;;;;;-0.90;100.00;102357.81;5055693;28;20492;-63
2023/01/26 09:59:37;;;;;;;51.23;21.40;;;;;;;-0.87;100.00;102363.19;5048568;28;20457;-63
2023/01/26 10:02:21;;;;;;;52.80;21.07;;;;;;;-0.86;100.00;102359.91;5052321;28;20024;-63
2023/01/26 10:04:52;;;;;;;53.10;20.43;;;;;;;-0.84;100.00;102358.41;5055100;28;20099;-63
2023/01/26 10:07:17;;;;;;;48.67;19.75;;;;;;;-0.82;100.00;102356.94;5060497;28;20029;-63
2023/01/26 10:09:47;;;;;;;52.90;20.87;;;;;;;-0.80;100.00;102355.44;5056750;28;20034;-63
2023/01/26 10:12:17;;;;;;;54.47;21.43;;;;;;;-0.78;100.00;102353.97;5063227;28;20041;-63
2023/01/26 10:14:54;;;;;;;52.30;21.70;;;;;;;-0.75;100.00;102354.28;5048393;28;20028;-63
2023/01/26 10:17:29;;;;;;;57.60;22.63;;;;;;;-0.72;100.00;102358.78;5048103;28;20029;-63
2023/01/26 10:20:02;;;;;;;54.43;21.53;;;;;;;-0.69;100.00;102346.38;5048401;28;20031;-63
2023/01/26 10:22:40;;;;;;;53.83;22.13;;;;;;;-0.65;100.00;102345.03;5047921;28;20107;-65
2023/01/26 10:25:16;;;;;;;53.93;21.60;;;;;;;-0.62;100.00;102353.88;5049530;28;20033;-65
2023/01/26 10:27:44;;;;;;;47.73;21.23;;;;;;;-0.59;100.00;102345.66;5047265;28;20044;-65
2023/01/26 10:30:15;;;;;;;55.43;22.97;;;;;;;-0.57;100.00;102344.16;5050524;28;20097;-64
2023/01/26 10:32:46;;;;;;;60.20;21.63;;;;;;;-0.52;100.00;102348.06;5047970;28;20025;-64
2023/01/26 10:35:20;;;;;;;51.08;22.45;;;;;;;-0.49;100.00;102342.41;5047768;28;20033;-64
2023/01/26 10:37:51;;;;;;;59.93;22.67;;;;;;;-0.45;100.00;102351.25;5048012;28;20066;-64
2023/01/26 10:40:16;;;;;;;62.45;22.20;;;;;;;-0.42;100.00;102354.09;5050235;28;20408;-65
2023/01/26 10:42:53;;;;;;;62.67;23.17;;;;;;;-0.38;100.00;102351.13;5047742;28;20036;-65
2023/01/26 10:45:26;;;;;;;57.37;23.53;;;;;;;-0.35;100.00;102366.72;5048431;28;20056;-64
2023/01/26 10:48:14;;;;;;;59.00;23.43;;;;;;;-0.33;100.00;102355.03;5047125;28;20496;-65
2023/01/26 10:50:40;;;;;;;56.50;22.40;;;;;;;-0.30;100.00;102359.53;5047795;28;20055;-64
2023/01/26 10:53:05;;;;;;;58.33;23.00;;;;;;;-0.28;100.00;102353.84;5047726;28;20507;-64
2023/01/26 10:55:32;;;;;;;61.63;24.50;;;;;;;-0.25;100.00;102358.34;5047736;28;20037;-65
2023/01/26 10:57:59;;;;;;;65.43;24.23;;;;;;;-0.21;100.00;102359.53;5057359;28;20034;-64
2023/01/26 11:00:32;;;;;;;61.47;25.43;;;;;;;-0.18;100.00;102364.97;5053476;28;20477;-65
2023/01/26 11:03:16;;;;;;;61.23;22.10;;;;;;;-0.15;100.00;102355.09;5046944;28;20029;-65
2023/01/26 11:05:48;;;;;;;67.80;22.07;;;;;;;-0.10;100.00;102355.53;5047501;28;20021;-64
2023/01/26 11:08:33;;;;;;;67.20;23.52;;;;;;;-0.07;100.00;102349.09;5047230;28;20025;-65
2023/01/26 11:10:59;;;;;;;65.73;24.80;;;;;;;-0.02;100.00;102344.47;5046904;28;20031;-64
2023/01/26 11:13:24;;;;;;;67.50;24.87;;;;;;;0.03;100.00;102347.47;5047177;28;20025;-65
2023/01/26 11:16:01;;;;;;;68.10;26.00;;;;;;;0.09;100.00;102341.31;5048992;28;20366;-64
2023/01/26 11:18:43;;;;;;;69.63;27.10;;;;;;;0.17;100.00;102334.44;5047725;28;20025;-65
2023/01/26 11:21:19;;;;;;;70.27;27.37;;;;;;;0.27;100.00;102343.00;5047301;28;20025;-65
2023/01/26 11:24:12;;;;;;;67.50;26.57;;;;;;;0.38;100.00;102350.03;5049967;28;20029;-65
2023/01/26 11:26:44;;;;;;;69.00;25.07;;;;;;;0.47;100.00;102344.91;5051469;28;20033;-65
2023/01/26 11:29:40;;;;;;;60.80;22.77;;;;;;;0.58;100.00;102348.53;5046488;28;20032;-64
2023/01/26 11:32:15;;;;;;;59.10;23.50;;;;;;;0.67;100.00;102354.53;5046440;28;20046;-65
2023/01/26 11:34:58;;;;;;;63.13;24.70;;;;;;;0.79;100.00;102353.91;5045625;28;20029;-64
2023/01/26 11:38:02;;;;;;;69.00;22.37;;;;;;;0.87;100.00;102353.00;5046360;28;20287;-64
2023/01/26 11:40:47;;;;;;;61.40;20.97;;;;;;;0.96;100.00;102347.88;5002790;28;20464;-64
2023/01/26 11:43:22;;;;;;;57.20;21.03;;;;;;;1.03;100.00;102341.69;5042166;28;20106;-64
2023/01/26 11:45:57;;;;;;;59.73;21.87;;;;;;;1.08;100.00;102348.13;5044488;28;20354;-65
2023/01/26 11:48:28;;;;;;;56.83;22.43;;;;;;;1.13;100.00;102340.91;5059313;28;20310;-64
2023/01/26 11:51:03;;;;;;;58.40;21.70;;;;;;;1.18;100.00;102334.59;5047434;28;20574;-65
2023/01/26 11:53:47;;;;;;;59.53;20.70;;;;;;;1.26;100.00;102332.75;5048505;28;20103;-65